sensor_id;sensor_type;location;lat;lon;timestamp;P1;durP1;ratioP1;P2;durP2;ratioP2
5454;SDS011;2750;49.050;9.250;2023-06-10T00:02:36;6.07;;;5.47;;
5454;SDS011;2750;49.050;9.250;2023-06-10T00:07:39;5.87;;;5.37;;
5454;SDS011;2750;49.050;9.250;2023-06-10T00:12:42;6.00;;;5.40;;
5454;SDS011;2750;49.050;9.250;2023-06-10T00:17:44;5.30;;;4.90;;
5454;SDS011;2750;49.050;9.250;2023-06-10T00:22:46;5.70;;;5.20;;
5454;SDS011;2750;49.050;9.250;2023-06-10T00:27:49;6.33;;;5.73;;
5454;SDS011;2750;49.050;9.250;2023-06-10T00:32:51;5.47;;;4.97;;
5454;SDS011;2750;49.050;9.250;2023-06-10T00:37:52;5.40;;;5.00;;
5454;SDS011;2750;49.050;9.250;2023-06-10T00:42:55;5.30;;;4.90;;
5454;SDS011;2750;49.050;9.250;2023-06-10T00:47:57;5.03;;;4.53;;
5454;SDS011;2750;49.050;9.250;2023-06-10T00:52:59;5.47;;;4.97;;
5454;SDS011;2750;49.050;9.250;2023-06-10T00:58:02;5.37;;;4.87;;
5454;SDS011;2750;49.050;9.250;2023-06-10T01:03:04;5.30;;;4.90;;
5454;SDS011;2750;49.050;9.250;2023-06-10T01:08:09;5.30;;;4.80;;
5454;SDS011;2750;49.050;9.250;2023-06-10T01:13:19;5.90;;;5.37;;
5454;SDS011;2750;49.050;9.250;2023-06-10T01:18:29;5.80;;;5.30;;
5454;SDS011;2750;49.050;9.250;2023-06-10T01:23:32;5.37;;;4.97;;
5454;SDS011;2750;49.050;9.250;2023-06-10T01:28:36;6.27;;;5.23;;
5454;SDS011;2750;49.050;9.250;2023-06-10T01:33:42;5.33;;;4.90;;
5454;SDS011;2750;49.050;9.250;2023-06-10T01:38:47;7.70;;;6.90;;
5454;SDS011;2750;49.050;9.250;2023-06-10T01:43:51;6.53;;;5.93;;
5454;SDS011;2750;49.050;9.250;2023-06-10T01:48:52;5.70;;;5.20;;
5454;SDS011;2750;49.050;9.250;2023-06-10T01:53:55;6.20;;;5.43;;
5454;SDS011;2750;49.050;9.250;2023-06-10T01:58:57;5.23;;;4.83;;
5454;SDS011;2750;49.050;9.250;2023-06-10T02:03:59;4.97;;;4.57;;
5454;SDS011;2750;49.050;9.250;2023-06-10T02:09:02;5.60;;;5.10;;
5454;SDS011;2750;49.050;9.250;2023-06-10T02:14:03;6.17;;;5.57;;
5454;SDS011;2750;49.050;9.250;2023-06-10T02:19:05;5.37;;;4.87;;
5454;SDS011;2750;49.050;9.250;2023-06-10T02:24:08;5.90;;;5.40;;
5454;SDS011;2750;49.050;9.250;2023-06-10T02:29:09;5.67;;;5.17;;
5454;SDS011;2750;49.050;9.250;2023-06-10T02:34:11;6.03;;;5.53;;
5454;SDS011;2750;49.050;9.250;2023-06-10T02:39:14;6.10;;;5.50;;
5454;SDS011;2750;49.050;9.250;2023-06-10T02:44:17;5.80;;;5.27;;
5454;SDS011;2750;49.050;9.250;2023-06-10T02:49:19;5.93;;;5.40;;
5454;SDS011;2750;49.050;9.250;2023-06-10T02:54:22;5.77;;;5.17;;
5454;SDS011;2750;49.050;9.250;2023-06-10T02:59:24;6.07;;;5.47;;
5454;SDS011;2750;49.050;9.250;2023-06-10T03:04:27;6.13;;;5.20;;
5454;SDS011;2750;49.050;9.250;2023-06-10T03:09:30;5.93;;;5.33;;
5454;SDS011;2750;49.050;9.250;2023-06-10T03:14:31;5.87;;;5.27;;
5454;SDS011;2750;49.050;9.250;2023-06-10T03:19:34;7.20;;;5.90;;
5454;SDS011;2750;49.050;9.250;2023-06-10T03:24:39;5.83;;;5.30;;
5454;SDS011;2750;49.050;9.250;2023-06-10T03:29:40;6.20;;;5.70;;
5454;SDS011;2750;49.050;9.250;2023-06-10T03:34:42;6.50;;;5.90;;
5454;SDS011;2750;49.050;9.250;2023-06-10T03:39:46;5.93;;;5.43;;
5454;SDS011;2750;49.050;9.250;2023-06-10T03:44:48;6.50;;;5.90;;
5454;SDS011;2750;49.050;9.250;2023-06-10T03:49:49;6.33;;;5.70;;
5454;SDS011;2750;49.050;9.250;2023-06-10T03:54:52;6.17;;;5.67;;
5454;SDS011;2750;49.050;9.250;2023-06-10T03:59:54;6.57;;;5.97;;
5454;SDS011;2750;49.050;9.250;2023-06-10T04:04:56;6.30;;;5.70;;
5454;SDS011;2750;49.050;9.250;2023-06-10T04:09:59;6.53;;;5.90;;
5454;SDS011;2750;49.050;9.250;2023-06-10T04:15:00;6.10;;;5.50;;
5454;SDS011;2750;49.050;9.250;2023-06-10T04:20:02;6.10;;;5.50;;
5454;SDS011;2750;49.050;9.250;2023-06-10T04:25:09;6.50;;;5.90;;
5454;SDS011;2750;49.050;9.250;2023-06-10T04:30:11;5.57;;;5.07;;
5454;SDS011;2750;49.050;9.250;2023-06-10T04:35:14;6.70;;;6.10;;
5454;SDS011;2750;49.050;9.250;2023-06-10T04:40:17;6.93;;;6.32;;
5454;SDS011;2750;49.050;9.250;2023-06-10T04:45:19;7.00;;;6.30;;
5454;SDS011;2750;49.050;9.250;2023-06-10T04:50:20;6.30;;;5.75;;
5454;SDS011;2750;49.050;9.250;2023-06-10T04:55:23;6.75;;;5.90;;
5454;SDS011;2750;49.050;9.250;2023-06-10T05:00:25;6.30;;;5.70;;
5454;SDS011;2750;49.050;9.250;2023-06-10T05:05:26;7.88;;;7.18;;
5454;SDS011;2750;49.050;9.250;2023-06-10T05:10:29;6.68;;;6.18;;
5454;SDS011;2750;49.050;9.250;2023-06-10T05:15:31;7.35;;;6.20;;
5454;SDS011;2750;49.050;9.250;2023-06-10T05:20:33;6.25;;;5.72;;
5454;SDS011;2750;49.050;9.250;2023-06-10T05:25:36;7.45;;;6.70;;
5454;SDS011;2750;49.050;9.250;2023-06-10T05:30:37;6.93;;;6.43;;
5454;SDS011;2750;49.050;9.250;2023-06-10T05:35:39;6.45;;;5.80;;
5454;SDS011;2750;49.050;9.250;2023-06-10T05:40:42;6.80;;;6.20;;
5454;SDS011;2750;49.050;9.250;2023-06-10T05:45:43;6.28;;;5.78;;
5454;SDS011;2750;49.050;9.250;2023-06-10T05:50:45;5.63;;;5.13;;
5454;SDS011;2750;49.050;9.250;2023-06-10T05:55:49;6.47;;;5.97;;
5454;SDS011;2750;49.050;9.250;2023-06-10T06:00:52;6.82;;;6.22;;
5454;SDS011;2750;49.050;9.250;2023-06-10T06:05:53;6.82;;;6.32;;
5454;SDS011;2750;49.050;9.250;2023-06-10T06:10:56;6.40;;;5.80;;
5454;SDS011;2750;49.050;9.250;2023-06-10T06:15:58;6.35;;;5.85;;
5454;SDS011;2750;49.050;9.250;2023-06-10T06:20:59;6.55;;;6.05;;
5454;SDS011;2750;49.050;9.250;2023-06-10T06:26:02;7.45;;;6.75;;
5454;SDS011;2750;49.050;9.250;2023-06-10T06:31:03;6.35;;;5.85;;
5454;SDS011;2750;49.050;9.250;2023-06-10T06:36:05;6.20;;;5.60;;
5454;SDS011;2750;49.050;9.250;2023-06-10T06:41:08;6.50;;;6.00;;
5454;SDS011;2750;49.050;9.250;2023-06-10T06:46:09;6.30;;;5.80;;
5454;SDS011;2750;49.050;9.250;2023-06-10T06:51:11;6.63;;;6.22;;
5454;SDS011;2750;49.050;9.250;2023-06-10T06:56:13;5.68;;;5.28;;
5454;SDS011;2750;49.050;9.250;2023-06-10T07:01:15;14.30;;;8.13;;
5454;SDS011;2750;49.050;9.250;2023-06-10T07:06:16;6.78;;;6.28;;
5454;SDS011;2750;49.050;9.250;2023-06-10T07:11:19;6.60;;;6.10;;
5454;SDS011;2750;49.050;9.250;2023-06-10T07:16:22;6.30;;;5.57;;
5454;SDS011;2750;49.050;9.250;2023-06-10T07:21:23;7.20;;;6.50;;
5454;SDS011;2750;49.050;9.250;2023-06-10T07:26:26;6.22;;;5.80;;
5454;SDS011;2750;49.050;9.250;2023-06-10T07:31:27;6.70;;;6.20;;
5454;SDS011;2750;49.050;9.250;2023-06-10T07:36:29;6.60;;;6.10;;
5454;SDS011;2750;49.050;9.250;2023-06-10T07:41:32;6.75;;;6.25;;
5454;SDS011;2750;49.050;9.250;2023-06-10T07:46:33;7.25;;;6.65;;
5454;SDS011;2750;49.050;9.250;2023-06-10T07:51:35;6.28;;;5.78;;
5454;SDS011;2750;49.050;9.250;2023-06-10T07:56:38;7.10;;;6.60;;
5454;SDS011;2750;49.050;9.250;2023-06-10T08:01:39;6.53;;;6.13;;
5454;SDS011;2750;49.050;9.250;2023-06-10T08:06:42;6.72;;;6.20;;
5454;SDS011;2750;49.050;9.250;2023-06-10T08:11:45;7.20;;;6.60;;
5454;SDS011;2750;49.050;9.250;2023-06-10T08:16:47;7.15;;;6.65;;
5454;SDS011;2750;49.050;9.250;2023-06-10T08:21:48;7.53;;;6.88;;
5454;SDS011;2750;49.050;9.250;2023-06-10T08:26:51;7.78;;;7.18;;
5454;SDS011;2750;49.050;9.250;2023-06-10T08:31:53;6.90;;;6.30;;
5454;SDS011;2750;49.050;9.250;2023-06-10T08:36:54;7.15;;;6.65;;
5454;SDS011;2750;49.050;9.250;2023-06-10T08:42:00;7.85;;;6.88;;
5454;SDS011;2750;49.050;9.250;2023-06-10T08:47:10;7.78;;;7.13;;
5454;SDS011;2750;49.050;9.250;2023-06-10T08:52:15;8.27;;;7.25;;
5454;SDS011;2750;49.050;9.250;2023-06-10T08:57:19;8.70;;;7.90;;
5454;SDS011;2750;49.050;9.250;2023-06-10T09:02:21;8.55;;;7.80;;
5454;SDS011;2750;49.050;9.250;2023-06-10T09:07:24;6.95;;;6.45;;
5454;SDS011;2750;49.050;9.250;2023-06-10T09:12:28;7.15;;;6.60;;
5454;SDS011;2750;49.050;9.250;2023-06-10T09:17:29;7.25;;;6.75;;
5454;SDS011;2750;49.050;9.250;2023-06-10T09:22:32;6.72;;;6.22;;
5454;SDS011;2750;49.050;9.250;2023-06-10T09:27:40;6.97;;;6.40;;
5454;SDS011;2750;49.050;9.250;2023-06-10T09:32:46;6.68;;;6.18;;
5454;SDS011;2750;49.050;9.250;2023-06-10T09:37:48;7.68;;;6.95;;
5454;SDS011;2750;49.050;9.250;2023-06-10T09:42:54;7.35;;;6.85;;
5454;SDS011;2750;49.050;9.250;2023-06-10T09:47:57;8.02;;;7.13;;
5454;SDS011;2750;49.050;9.250;2023-06-10T09:52:58;7.38;;;6.88;;
5454;SDS011;2750;49.050;9.250;2023-06-10T09:58:03;7.50;;;6.80;;
5454;SDS011;2750;49.050;9.250;2023-06-10T10:03:05;7.03;;;6.32;;
5454;SDS011;2750;49.050;9.250;2023-06-10T10:08:07;6.70;;;6.13;;
5454;SDS011;2750;49.050;9.250;2023-06-10T10:13:09;6.80;;;6.30;;
5454;SDS011;2750;49.050;9.250;2023-06-10T10:18:11;6.80;;;6.15;;
5454;SDS011;2750;49.050;9.250;2023-06-10T10:23:17;7.38;;;6.63;;
5454;SDS011;2750;49.050;9.250;2023-06-10T10:28:25;7.32;;;6.63;;
5454;SDS011;2750;49.050;9.250;2023-06-10T10:33:36;6.22;;;5.72;;
5454;SDS011;2750;49.050;9.250;2023-06-10T10:38:43;6.70;;;6.25;;
5454;SDS011;2750;49.050;9.250;2023-06-10T10:43:49;6.65;;;6.13;;
5454;SDS011;2750;49.050;9.250;2023-06-10T10:48:53;6.97;;;6.38;;
5454;SDS011;2750;49.050;9.250;2023-06-10T10:54:10;7.90;;;6.07;;
5454;SDS011;2750;49.050;9.250;2023-06-10T10:59:14;7.60;;;6.35;;
5454;SDS011;2750;49.050;9.250;2023-06-10T11:04:19;7.40;;;6.80;;
5454;SDS011;2750;49.050;9.250;2023-06-10T11:09:25;6.97;;;6.47;;
5454;SDS011;2750;49.050;9.250;2023-06-10T11:14:29;6.00;;;5.40;;
5454;SDS011;2750;49.050;9.250;2023-06-10T11:19:31;6.10;;;5.63;;
5454;SDS011;2750;49.050;9.250;2023-06-10T11:24:34;6.50;;;6.00;;
5454;SDS011;2750;49.050;9.250;2023-06-10T11:29:36;6.40;;;5.88;;
5454;SDS011;2750;49.050;9.250;2023-06-10T11:34:38;6.40;;;5.90;;
5454;SDS011;2750;49.050;9.250;2023-06-10T11:39:39;6.13;;;5.63;;
5454;SDS011;2750;49.050;9.250;2023-06-10T11:44:48;5.88;;;5.38;;
5454;SDS011;2750;49.050;9.250;2023-06-10T11:49:55;5.70;;;5.15;;
5454;SDS011;2750;49.050;9.250;2023-06-10T11:54:58;6.03;;;5.57;;
5454;SDS011;2750;49.050;9.250;2023-06-10T12:00:04;5.72;;;5.28;;
5454;SDS011;2750;49.050;9.250;2023-06-10T12:05:10;6.47;;;6.00;;
5454;SDS011;2750;49.050;9.250;2023-06-10T12:10:12;5.95;;;5.47;;
5454;SDS011;2750;49.050;9.250;2023-06-10T12:15:22;5.57;;;5.18;;
5454;SDS011;2750;49.050;9.250;2023-06-10T12:20:25;5.90;;;5.40;;
5454;SDS011;2750;49.050;9.250;2023-06-10T12:25:28;4.97;;;4.57;;
5454;SDS011;2750;49.050;9.250;2023-06-10T12:30:31;5.72;;;5.22;;
5454;SDS011;2750;49.050;9.250;2023-06-10T12:35:33;5.15;;;4.78;;
5454;SDS011;2750;49.050;9.250;2023-06-10T12:40:36;5.68;;;5.28;;
5454;SDS011;2750;49.050;9.250;2023-06-10T12:45:41;5.05;;;4.68;;
5454;SDS011;2750;49.050;9.250;2023-06-10T12:50:50;4.68;;;4.38;;
5454;SDS011;2750;49.050;9.250;2023-06-10T12:55:52;4.72;;;4.38;;
5454;SDS011;2750;49.050;9.250;2023-06-10T13:00:55;4.75;;;4.45;;
5454;SDS011;2750;49.050;9.250;2023-06-10T13:05:56;5.20;;;4.80;;
5454;SDS011;2750;49.050;9.250;2023-06-10T13:10:58;5.20;;;4.80;;
5454;SDS011;2750;49.050;9.250;2023-06-10T13:16:01;5.28;;;4.95;;
5454;SDS011;2750;49.050;9.250;2023-06-10T13:21:02;5.95;;;5.55;;
5454;SDS011;2750;49.050;9.250;2023-06-10T13:26:04;5.80;;;5.40;;
5454;SDS011;2750;49.050;9.250;2023-06-10T13:31:07;5.93;;;5.43;;
5454;SDS011;2750;49.050;9.250;2023-06-10T13:36:08;5.43;;;5.03;;
5454;SDS011;2750;49.050;9.250;2023-06-10T13:41:10;5.20;;;4.80;;
5454;SDS011;2750;49.050;9.250;2023-06-10T13:46:13;5.30;;;4.90;;
5454;SDS011;2750;49.050;9.250;2023-06-10T13:51:15;5.68;;;4.72;;
5454;SDS011;2750;49.050;9.250;2023-06-10T13:56:16;5.22;;;4.82;;
5454;SDS011;2750;49.050;9.250;2023-06-10T14:01:19;4.47;;;4.18;;
5454;SDS011;2750;49.050;9.250;2023-06-10T14:06:21;4.85;;;4.55;;
5454;SDS011;2750;49.050;9.250;2023-06-10T14:11:22;5.00;;;4.60;;
5454;SDS011;2750;49.050;9.250;2023-06-10T14:16:25;5.15;;;4.75;;
5454;SDS011;2750;49.050;9.250;2023-06-10T14:21:26;5.75;;;5.30;;
5454;SDS011;2750;49.050;9.250;2023-06-10T14:26:28;5.07;;;4.70;;
5454;SDS011;2750;49.050;9.250;2023-06-10T14:31:31;4.57;;;4.22;;
5454;SDS011;2750;49.050;9.250;2023-06-10T14:36:32;4.82;;;4.45;;
5454;SDS011;2750;49.050;9.250;2023-06-10T14:41:34;4.50;;;4.20;;
5454;SDS011;2750;49.050;9.250;2023-06-10T14:46:37;5.15;;;4.78;;
5454;SDS011;2750;49.050;9.250;2023-06-10T14:51:38;5.75;;;5.25;;
5454;SDS011;2750;49.050;9.250;2023-06-10T14:56:40;5.38;;;4.97;;
5454;SDS011;2750;49.050;9.250;2023-06-10T15:01:42;5.03;;;4.65;;
5454;SDS011;2750;49.050;9.250;2023-06-10T15:06:44;5.18;;;4.78;;
5454;SDS011;2750;49.050;9.250;2023-06-10T15:11:45;5.00;;;4.60;;
5454;SDS011;2750;49.050;9.250;2023-06-10T15:16:48;5.57;;;4.35;;
5454;SDS011;2750;49.050;9.250;2023-06-10T15:21:50;5.03;;;4.65;;
5454;SDS011;2750;49.050;9.250;2023-06-10T15:26:51;4.75;;;4.45;;
5454;SDS011;2750;49.050;9.250;2023-06-10T15:31:54;5.22;;;4.80;;
5454;SDS011;2750;49.050;9.250;2023-06-10T15:36:55;5.18;;;4.75;;
5454;SDS011;2750;49.050;9.250;2023-06-10T15:41:57;5.03;;;4.65;;
5454;SDS011;2750;49.050;9.250;2023-06-10T15:47:00;4.95;;;4.55;;
5454;SDS011;2750;49.050;9.250;2023-06-10T15:52:01;4.65;;;4.25;;
5454;SDS011;2750;49.050;9.250;2023-06-10T15:57:03;4.38;;;4.05;;
5454;SDS011;2750;49.050;9.250;2023-06-10T16:02:07;4.30;;;3.72;;
5454;SDS011;2750;49.050;9.250;2023-06-10T16:07:08;4.30;;;4.00;;
5454;SDS011;2750;49.050;9.250;2023-06-10T16:12:10;4.35;;;4.05;;
5454;SDS011;2750;49.050;9.250;2023-06-10T16:17:13;4.40;;;4.10;;
5454;SDS011;2750;49.050;9.250;2023-06-10T16:22:14;4.55;;;4.25;;
5454;SDS011;2750;49.050;9.250;2023-06-10T16:27:16;4.65;;;4.35;;
5454;SDS011;2750;49.050;9.250;2023-06-10T16:32:20;5.00;;;4.60;;
5454;SDS011;2750;49.050;9.250;2023-06-10T16:37:21;5.00;;;4.60;;
5454;SDS011;2750;49.050;9.250;2023-06-10T16:42:23;5.28;;;4.88;;
5454;SDS011;2750;49.050;9.250;2023-06-10T16:47:26;4.95;;;4.55;;
5454;SDS011;2750;49.050;9.250;2023-06-10T16:52:27;5.50;;;5.00;;
5454;SDS011;2750;49.050;9.250;2023-06-10T16:57:29;5.10;;;4.60;;
5454;SDS011;2750;49.050;9.250;2023-06-10T17:02:32;4.90;;;4.60;;
5454;SDS011;2750;49.050;9.250;2023-06-10T17:07:33;4.50;;;4.10;;
5454;SDS011;2750;49.050;9.250;2023-06-10T17:12:35;4.53;;;4.22;;
5454;SDS011;2750;49.050;9.250;2023-06-10T17:17:37;4.72;;;4.43;;
5454;SDS011;2750;49.050;9.250;2023-06-10T17:22:39;4.80;;;4.50;;
5454;SDS011;2750;49.050;9.250;2023-06-10T17:27:41;4.82;;;4.40;;
5454;SDS011;2750;49.050;9.250;2023-06-10T17:32:43;5.07;;;4.78;;
5454;SDS011;2750;49.050;9.250;2023-06-10T17:37:45;5.25;;;4.85;;
5454;SDS011;2750;49.050;9.250;2023-06-10T17:42:46;5.07;;;4.70;;
5454;SDS011;2750;49.050;9.250;2023-06-10T17:47:49;5.05;;;4.75;;
5454;SDS011;2750;49.050;9.250;2023-06-10T17:52:51;5.57;;;5.20;;
5454;SDS011;2750;49.050;9.250;2023-06-10T17:57:52;6.95;;;6.38;;
5454;SDS011;2750;49.050;9.250;2023-06-10T18:02:55;6.03;;;5.65;;
5454;SDS011;2750;49.050;9.250;2023-06-10T18:07:56;5.85;;;5.30;;
5454;SDS011;2750;49.050;9.250;2023-06-10T18:12:58;6.60;;;6.10;;
5454;SDS011;2750;49.050;9.250;2023-06-10T18:18:02;6.97;;;6.28;;
5454;SDS011;2750;49.050;9.250;2023-06-10T18:23:04;6.63;;;6.03;;
5454;SDS011;2750;49.050;9.250;2023-06-10T18:28:06;6.43;;;5.93;;
5454;SDS011;2750;49.050;9.250;2023-06-10T18:33:09;5.38;;;4.97;;
5454;SDS011;2750;49.050;9.250;2023-06-10T18:38:10;5.45;;;5.05;;
5454;SDS011;2750;49.050;9.250;2023-06-10T18:43:12;5.88;;;5.38;;
5454;SDS011;2750;49.050;9.250;2023-06-10T18:48:14;5.20;;;4.80;;
5454;SDS011;2750;49.050;9.250;2023-06-10T18:53:16;5.35;;;4.95;;
5454;SDS011;2750;49.050;9.250;2023-06-10T18:58:17;5.50;;;4.47;;
5454;SDS011;2750;49.050;9.250;2023-06-10T19:03:20;5.25;;;4.75;;
5454;SDS011;2750;49.050;9.250;2023-06-10T19:08:22;5.55;;;5.15;;
5454;SDS011;2750;49.050;9.250;2023-06-10T19:13:24;6.05;;;5.55;;
5454;SDS011;2750;49.050;9.250;2023-06-10T19:18:28;5.75;;;5.25;;
5454;SDS011;2750;49.050;9.250;2023-06-10T19:23:30;5.60;;;5.10;;
5454;SDS011;2750;49.050;9.250;2023-06-10T19:28:31;5.47;;;5.07;;
5454;SDS011;2750;49.050;9.250;2023-06-10T19:33:34;5.57;;;5.07;;
5454;SDS011;2750;49.050;9.250;2023-06-10T19:38:36;6.18;;;5.47;;
5454;SDS011;2750;49.050;9.250;2023-06-10T19:43:37;5.75;;;5.25;;
5454;SDS011;2750;49.050;9.250;2023-06-10T19:48:40;6.40;;;5.90;;
5454;SDS011;2750;49.050;9.250;2023-06-10T19:53:41;5.63;;;5.10;;
5454;SDS011;2750;49.050;9.250;2023-06-10T19:58:43;6.40;;;5.85;;
5454;SDS011;2750;49.050;9.250;2023-06-10T20:03:46;6.32;;;5.88;;
5454;SDS011;2750;49.050;9.250;2023-06-10T20:08:47;6.63;;;6.03;;
5454;SDS011;2750;49.050;9.250;2023-06-10T20:13:49;6.25;;;5.70;;
5454;SDS011;2750;49.050;9.250;2023-06-10T20:18:52;6.35;;;5.85;;
5454;SDS011;2750;49.050;9.250;2023-06-10T20:23:53;6.05;;;5.55;;
5454;SDS011;2750;49.050;9.250;2023-06-10T20:28:55;5.78;;;5.30;;
5454;SDS011;2750;49.050;9.250;2023-06-10T20:33:57;5.78;;;5.35;;
5454;SDS011;2750;49.050;9.250;2023-06-10T20:38:59;6.60;;;6.10;;
5454;SDS011;2750;49.050;9.250;2023-06-10T20:44:00;6.15;;;5.65;;
5454;SDS011;2750;49.050;9.250;2023-06-10T20:49:03;6.83;;;6.23;;
5454;SDS011;2750;49.050;9.250;2023-06-10T20:54:05;7.88;;;6.18;;
5454;SDS011;2750;49.050;9.250;2023-06-10T20:59:06;6.10;;;5.70;;
5454;SDS011;2750;49.050;9.250;2023-06-10T21:04:09;5.83;;;5.43;;
5454;SDS011;2750;49.050;9.250;2023-06-10T21:09:11;6.53;;;6.03;;
5454;SDS011;2750;49.050;9.250;2023-06-10T21:14:12;6.40;;;5.90;;
5454;SDS011;2750;49.050;9.250;2023-06-10T21:19:15;7.63;;;6.93;;
5454;SDS011;2750;49.050;9.250;2023-06-10T21:24:17;6.90;;;6.40;;
5454;SDS011;2750;49.050;9.250;2023-06-10T21:29:18;7.13;;;6.53;;
5454;SDS011;2750;49.050;9.250;2023-06-10T21:34:21;6.57;;;5.97;;
5454;SDS011;2750;49.050;9.250;2023-06-10T21:39:22;7.33;;;6.10;;
5454;SDS011;2750;49.050;9.250;2023-06-10T21:44:24;6.73;;;6.17;;
5454;SDS011;2750;49.050;9.250;2023-06-10T21:49:27;7.37;;;6.70;;
5454;SDS011;2750;49.050;9.250;2023-06-10T21:54:28;7.50;;;6.80;;
5454;SDS011;2750;49.050;9.250;2023-06-10T21:59:30;7.80;;;7.20;;
5454;SDS011;2750;49.050;9.250;2023-06-10T22:04:33;7.13;;;6.53;;
5454;SDS011;2750;49.050;9.250;2023-06-10T22:09:34;6.80;;;6.27;;
5454;SDS011;2750;49.050;9.250;2023-06-10T22:14:36;6.83;;;6.23;;
5454;SDS011;2750;49.050;9.250;2023-06-10T22:19:39;7.67;;;7.00;;
5454;SDS011;2750;49.050;9.250;2023-06-10T22:24:41;7.83;;;7.23;;
5454;SDS011;2750;49.050;9.250;2023-06-10T22:29:43;8.33;;;7.60;;
5454;SDS011;2750;49.050;9.250;2023-06-10T22:34:46;8.00;;;7.20;;
5454;SDS011;2750;49.050;9.250;2023-06-10T22:39:47;7.83;;;6.97;;
5454;SDS011;2750;49.050;9.250;2023-06-10T22:44:48;6.97;;;6.37;;
5454;SDS011;2750;49.050;9.250;2023-06-10T22:49:52;7.53;;;6.93;;
5454;SDS011;2750;49.050;9.250;2023-06-10T22:54:54;8.30;;;7.60;;
5454;SDS011;2750;49.050;9.250;2023-06-10T22:59:56;8.00;;;7.40;;
5454;SDS011;2750;49.050;9.250;2023-06-10T23:04:59;7.77;;;7.17;;
5454;SDS011;2750;49.050;9.250;2023-06-10T23:10:01;8.03;;;7.43;;
5454;SDS011;2750;49.050;9.250;2023-06-10T23:15:02;8.97;;;8.23;;
5454;SDS011;2750;49.050;9.250;2023-06-10T23:20:07;8.30;;;7.60;;
5454;SDS011;2750;49.050;9.250;2023-06-10T23:25:10;8.13;;;7.43;;
5454;SDS011;2750;49.050;9.250;2023-06-10T23:30:12;8.37;;;7.63;;
5454;SDS011;2750;49.050;9.250;2023-06-10T23:35:15;8.30;;;7.50;;
5454;SDS011;2750;49.050;9.250;2023-06-10T23:40:19;7.90;;;7.13;;
5454;SDS011;2750;49.050;9.250;2023-06-10T23:45:21;8.70;;;7.43;;
5454;SDS011;2750;49.050;9.250;2023-06-10T23:50:24;7.30;;;6.60;;
5454;SDS011;2750;49.050;9.250;2023-06-10T23:55:26;7.90;;;7.20;;
